sensor_id;sensor_type;location;lat;lon;timestamp;P1;durP1;ratioP1;P2;durP2;ratioP2
66593;SDS011;53450;42.584;23.366;2022-08-25T00:00:45;28.13;;;8.50;;
66593;SDS011;53450;42.584;23.366;2022-08-25T00:03:12;29.17;;;7.20;;
66593;SDS011;53450;42.584;23.366;2022-08-25T00:05:38;30.48;;;8.95;;
66593;SDS011;53450;42.584;23.366;2022-08-25T00:08:04;27.42;;;8.50;;
66593;SDS011;53450;42.584;23.366;2022-08-25T00:10:31;22.75;;;8.30;;
66593;SDS011;53450;42.584;23.366;2022-08-25T00:13:02;26.00;;;7.10;;
66593;SDS011;53450;42.584;23.366;2022-08-25T00:15:29;26.92;;;7.82;;
66593;SDS011;53450;42.584;23.366;2022-08-25T00:17:56;34.42;;;8.70;;
66593;SDS011;53450;42.584;23.366;2022-08-25T00:20:23;27.45;;;8.07;;
66593;SDS011;53450;42.584;23.366;2022-08-25T00:22:49;37.00;;;8.60;;
66593;SDS011;53450;42.584;23.366;2022-08-25T00:25:16;23.48;;;7.80;;
66593;SDS011;53450;42.584;23.366;2022-08-25T00:27:42;30.13;;;8.30;;
66593;SDS011;53450;42.584;23.366;2022-08-25T00:30:08;39.25;;;9.20;;
66593;SDS011;53450;42.584;23.366;2022-08-25T00:32:35;26.85;;;7.47;;
66593;SDS011;53450;42.584;23.366;2022-08-25T00:35:00;27.98;;;8.20;;
66593;SDS011;53450;42.584;23.366;2022-08-25T00:37:52;30.70;;;7.70;;
66593;SDS011;53450;42.584;23.366;2022-08-25T00:40:18;36.50;;;8.80;;
66593;SDS011;53450;42.584;23.366;2022-08-25T00:42:44;30.27;;;9.32;;
66593;SDS011;53450;42.584;23.366;2022-08-25T00:45:10;26.25;;;8.68;;
66593;SDS011;53450;42.584;23.366;2022-08-25T00:47:36;31.48;;;8.95;;
66593;SDS011;53450;42.584;23.366;2022-08-25T00:50:03;34.80;;;8.48;;
66593;SDS011;53450;42.584;23.366;2022-08-25T00:52:57;32.55;;;8.02;;
66593;SDS011;53450;42.584;23.366;2022-08-25T00:55:51;20.33;;;7.47;;
66593;SDS011;53450;42.584;23.366;2022-08-25T00:58:19;29.83;;;8.68;;
66593;SDS011;53450;42.584;23.366;2022-08-25T01:03:16;41.47;;;9.93;;
66593;SDS011;53450;42.584;23.366;2022-08-25T01:05:44;27.88;;;8.60;;
66593;SDS011;53450;42.584;23.366;2022-08-25T01:08:11;27.95;;;8.95;;
66593;SDS011;53450;42.584;23.366;2022-08-25T01:10:37;32.58;;;10.20;;
66593;SDS011;53450;42.584;23.366;2022-08-25T01:13:10;21.05;;;8.93;;
66593;SDS011;53450;42.584;23.366;2022-08-25T01:15:42;33.72;;;9.65;;
66593;SDS011;53450;42.584;23.366;2022-08-25T01:18:09;23.63;;;9.02;;
66593;SDS011;53450;42.584;23.366;2022-08-25T01:20:36;31.52;;;10.35;;
66593;SDS011;53450;42.584;23.366;2022-08-25T01:23:02;35.92;;;11.65;;
66593;SDS011;53450;42.584;23.366;2022-08-25T01:25:43;26.95;;;10.55;;
66593;SDS011;53450;42.584;23.366;2022-08-25T01:28:14;30.45;;;11.70;;
66593;SDS011;53450;42.584;23.366;2022-08-25T01:30:40;25.52;;;11.27;;
66593;SDS011;53450;42.584;23.366;2022-08-25T01:33:07;37.78;;;11.70;;
66593;SDS011;53450;42.584;23.366;2022-08-25T01:35:34;26.30;;;11.70;;
66593;SDS011;53450;42.584;23.366;2022-08-25T01:38:01;34.40;;;12.38;;
66593;SDS011;53450;42.584;23.366;2022-08-25T01:40:28;29.17;;;13.70;;
66593;SDS011;53450;42.584;23.366;2022-08-25T01:45:43;37.17;;;13.18;;
66593;SDS011;53450;42.584;23.366;2022-08-25T01:48:10;43.92;;;14.25;;
66593;SDS011;53450;42.584;23.366;2022-08-25T01:50:36;38.95;;;15.10;;
66593;SDS011;53450;42.584;23.366;2022-08-25T01:53:07;34.05;;;15.18;;
66593;SDS011;53450;42.584;23.366;2022-08-25T01:55:53;35.10;;;15.13;;
66593;SDS011;53450;42.584;23.366;2022-08-25T01:58:31;45.33;;;16.17;;
66593;SDS011;53450;42.584;23.366;2022-08-25T02:00:59;34.90;;;15.35;;
66593;SDS011;53450;42.584;23.366;2022-08-25T02:03:27;34.17;;;15.27;;
66593;SDS011;53450;42.584;23.366;2022-08-25T02:05:54;47.10;;;16.23;;
66593;SDS011;53450;42.584;23.366;2022-08-25T02:08:20;40.85;;;16.52;;
66593;SDS011;53450;42.584;23.366;2022-08-25T02:10:47;48.13;;;15.73;;
66593;SDS011;53450;42.584;23.366;2022-08-25T02:13:14;37.00;;;15.85;;
66593;SDS011;53450;42.584;23.366;2022-08-25T02:15:41;33.95;;;17.08;;
66593;SDS011;53450;42.584;23.366;2022-08-25T02:18:33;30.77;;;16.23;;
66593;SDS011;53450;42.584;23.366;2022-08-25T02:20:59;29.58;;;16.92;;
66593;SDS011;53450;42.584;23.366;2022-08-25T02:23:25;43.28;;;16.05;;
66593;SDS011;53450;42.584;23.366;2022-08-25T02:25:51;36.05;;;16.23;;
66593;SDS011;53450;42.584;23.366;2022-08-25T02:28:16;35.53;;;15.95;;
66593;SDS011;53450;42.584;23.366;2022-08-25T02:30:42;25.92;;;14.77;;
66593;SDS011;53450;42.584;23.366;2022-08-25T02:33:08;29.60;;;15.75;;
66593;SDS011;53450;42.584;23.366;2022-08-25T02:35:34;44.88;;;14.98;;
66593;SDS011;53450;42.584;23.366;2022-08-25T02:38:00;26.02;;;15.02;;
66593;SDS011;53450;42.584;23.366;2022-08-25T02:40:26;32.17;;;14.50;;
66593;SDS011;53450;42.584;23.366;2022-08-25T02:42:52;33.90;;;15.13;;
66593;SDS011;53450;42.584;23.366;2022-08-25T02:45:18;31.88;;;14.75;;
66593;SDS011;53450;42.584;23.366;2022-08-25T02:47:44;26.23;;;14.15;;
66593;SDS011;53450;42.584;23.366;2022-08-25T02:50:10;32.88;;;13.90;;
66593;SDS011;53450;42.584;23.366;2022-08-25T02:52:37;33.00;;;13.93;;
66593;SDS011;53450;42.584;23.366;2022-08-25T02:55:04;33.95;;;12.57;;
66593;SDS011;53450;42.584;23.366;2022-08-25T02:57:31;32.95;;;13.82;;
66593;SDS011;53450;42.584;23.366;2022-08-25T02:59:57;27.58;;;12.68;;
66593;SDS011;53450;42.584;23.366;2022-08-25T03:02:23;27.42;;;12.05;;
66593;SDS011;53450;42.584;23.366;2022-08-25T03:04:50;22.95;;;12.52;;
66593;SDS011;53450;42.584;23.366;2022-08-25T03:07:17;25.23;;;12.55;;
66593;SDS011;53450;42.584;23.366;2022-08-25T03:09:44;31.30;;;12.25;;
66593;SDS011;53450;42.584;23.366;2022-08-25T03:12:10;26.77;;;12.27;;
66593;SDS011;53450;42.584;23.366;2022-08-25T03:14:36;31.00;;;12.48;;
66593;SDS011;53450;42.584;23.366;2022-08-25T03:17:03;35.17;;;13.32;;
66593;SDS011;53450;42.584;23.366;2022-08-25T03:19:30;25.45;;;12.88;;
66593;SDS011;53450;42.584;23.366;2022-08-25T03:21:55;32.20;;;13.23;;
66593;SDS011;53450;42.584;23.366;2022-08-25T03:24:22;40.55;;;12.85;;
66593;SDS011;53450;42.584;23.366;2022-08-25T03:26:48;30.45;;;12.75;;
66593;SDS011;53450;42.584;23.366;2022-08-25T03:29:25;28.95;;;13.25;;
66593;SDS011;53450;42.584;23.366;2022-08-25T03:31:52;25.27;;;12.50;;
66593;SDS011;53450;42.584;23.366;2022-08-25T03:34:19;25.98;;;12.32;;
66593;SDS011;53450;42.584;23.366;2022-08-25T03:36:47;20.25;;;13.00;;
66593;SDS011;53450;42.584;23.366;2022-08-25T03:39:17;37.17;;;13.65;;
66593;SDS011;53450;42.584;23.366;2022-08-25T03:41:44;34.55;;;13.18;;
66593;SDS011;53450;42.584;23.366;2022-08-25T03:44:11;27.63;;;13.23;;
66593;SDS011;53450;42.584;23.366;2022-08-25T03:46:41;43.63;;;12.88;;
66593;SDS011;53450;42.584;23.366;2022-08-25T03:49:13;31.13;;;13.32;;
66593;SDS011;53450;42.584;23.366;2022-08-25T03:51:45;27.08;;;13.70;;
66593;SDS011;53450;42.584;23.366;2022-08-25T03:54:13;30.70;;;12.23;;
66593;SDS011;53450;42.584;23.366;2022-08-25T03:56:40;25.58;;;13.18;;
66593;SDS011;53450;42.584;23.366;2022-08-25T03:59:07;35.28;;;13.50;;
66593;SDS011;53450;42.584;23.366;2022-08-25T04:01:35;18.00;;;11.70;;
66593;SDS011;53450;42.584;23.366;2022-08-25T04:04:01;31.67;;;12.13;;
66593;SDS011;53450;42.584;23.366;2022-08-25T04:06:27;24.80;;;12.32;;
66593;SDS011;53450;42.584;23.366;2022-08-25T04:08:53;40.70;;;12.68;;
66593;SDS011;53450;42.584;23.366;2022-08-25T04:11:21;32.40;;;14.23;;
66593;SDS011;53450;42.584;23.366;2022-08-25T04:13:47;32.78;;;13.93;;
66593;SDS011;53450;42.584;23.366;2022-08-25T04:16:15;32.20;;;15.43;;
66593;SDS011;53450;42.584;23.366;2022-08-25T04:18:43;36.47;;;14.07;;
66593;SDS011;53450;42.584;23.366;2022-08-25T04:21:09;30.63;;;13.75;;
66593;SDS011;53450;42.584;23.366;2022-08-25T04:23:38;35.28;;;15.48;;
66593;SDS011;53450;42.584;23.366;2022-08-25T04:26:12;34.50;;;16.52;;
66593;SDS011;53450;42.584;23.366;2022-08-25T04:28:40;31.88;;;13.57;;
66593;SDS011;53450;42.584;23.366;2022-08-25T04:31:09;39.33;;;14.45;;
66593;SDS011;53450;42.584;23.366;2022-08-25T04:34:02;27.73;;;14.80;;
66593;SDS011;53450;42.584;23.366;2022-08-25T04:36:31;42.03;;;15.38;;
66593;SDS011;53450;42.584;23.366;2022-08-25T04:38:58;50.25;;;15.32;;
66593;SDS011;53450;42.584;23.366;2022-08-25T04:41:24;31.63;;;15.68;;
66593;SDS011;53450;42.584;23.366;2022-08-25T04:43:55;27.27;;;13.70;;
66593;SDS011;53450;42.584;23.366;2022-08-25T04:46:23;43.78;;;14.32;;
66593;SDS011;53450;42.584;23.366;2022-08-25T04:48:52;33.65;;;13.75;;
66593;SDS011;53450;42.584;23.366;2022-08-25T04:51:24;34.88;;;12.10;;
66593;SDS011;53450;42.584;23.366;2022-08-25T04:54:17;39.33;;;13.35;;
66593;SDS011;53450;42.584;23.366;2022-08-25T04:57:11;35.50;;;10.80;;
66593;SDS011;53450;42.584;23.366;2022-08-25T04:59:37;39.33;;;11.27;;
66593;SDS011;53450;42.584;23.366;2022-08-25T05:02:03;30.85;;;10.88;;
66593;SDS011;53450;42.584;23.366;2022-08-25T05:04:32;31.17;;;10.20;;
66593;SDS011;53450;42.584;23.366;2022-08-25T05:07:00;29.33;;;10.75;;
66593;SDS011;53450;42.584;23.366;2022-08-25T05:09:26;28.67;;;10.15;;
66593;SDS011;53450;42.584;23.366;2022-08-25T05:11:53;28.73;;;10.45;;
66593;SDS011;53450;42.584;23.366;2022-08-25T05:14:19;28.55;;;10.73;;
66593;SDS011;53450;42.584;23.366;2022-08-25T05:16:46;30.65;;;9.98;;
66593;SDS011;53450;42.584;23.366;2022-08-25T05:19:12;31.85;;;10.73;;
66593;SDS011;53450;42.584;23.366;2022-08-25T05:21:38;28.80;;;9.90;;
66593;SDS011;53450;42.584;23.366;2022-08-25T05:24:05;27.23;;;10.23;;
66593;SDS011;53450;42.584;23.366;2022-08-25T05:26:32;28.27;;;9.80;;
66593;SDS011;53450;42.584;23.366;2022-08-25T05:28:59;35.58;;;9.32;;
66593;SDS011;53450;42.584;23.366;2022-08-25T05:31:26;29.75;;;10.57;;
66593;SDS011;53450;42.584;23.366;2022-08-25T05:33:53;24.58;;;9.77;;
66593;SDS011;53450;42.584;23.366;2022-08-25T05:36:19;27.73;;;10.52;;
66593;SDS011;53450;42.584;23.366;2022-08-25T05:38:46;20.05;;;9.75;;
66593;SDS011;53450;42.584;23.366;2022-08-25T05:41:14;24.83;;;9.18;;
66593;SDS011;53450;42.584;23.366;2022-08-25T05:43:42;34.20;;;9.50;;
66593;SDS011;53450;42.584;23.366;2022-08-25T05:46:10;23.90;;;10.40;;
66593;SDS011;53450;42.584;23.366;2022-08-25T05:48:36;35.33;;;9.90;;
66593;SDS011;53450;42.584;23.366;2022-08-25T05:51:03;32.65;;;10.43;;
66593;SDS011;53450;42.584;23.366;2022-08-25T05:53:31;29.73;;;9.57;;
66593;SDS011;53450;42.584;23.366;2022-08-25T05:55:57;29.30;;;8.48;;
66593;SDS011;53450;42.584;23.366;2022-08-25T05:58:25;30.77;;;9.85;;
66593;SDS011;53450;42.584;23.366;2022-08-25T06:00:55;29.40;;;9.02;;
66593;SDS011;53450;42.584;23.366;2022-08-25T06:03:22;47.35;;;9.43;;
66593;SDS011;53450;42.584;23.366;2022-08-25T06:05:48;35.55;;;11.30;;
66593;SDS011;53450;42.584;23.366;2022-08-25T06:08:14;33.78;;;9.52;;
66593;SDS011;53450;42.584;23.366;2022-08-25T06:10:40;23.63;;;8.98;;
66593;SDS011;53450;42.584;23.366;2022-08-25T06:13:06;31.65;;;9.55;;
66593;SDS011;53450;42.584;23.366;2022-08-25T06:15:32;33.72;;;8.60;;
66593;SDS011;53450;42.584;23.366;2022-08-25T06:17:58;22.15;;;8.07;;
66593;SDS011;53450;42.584;23.366;2022-08-25T06:20:26;32.67;;;8.52;;
66593;SDS011;53450;42.584;23.366;2022-08-25T06:22:53;35.88;;;7.97;;
66593;SDS011;53450;42.584;23.366;2022-08-25T06:25:21;22.85;;;7.35;;
66593;SDS011;53450;42.584;23.366;2022-08-25T06:27:47;26.88;;;6.50;;
66593;SDS011;53450;42.584;23.366;2022-08-25T06:30:15;29.73;;;7.65;;
66593;SDS011;53450;42.584;23.366;2022-08-25T06:32:43;22.45;;;5.97;;
66593;SDS011;53450;42.584;23.366;2022-08-25T06:35:10;28.38;;;6.72;;
66593;SDS011;53450;42.584;23.366;2022-08-25T06:37:39;31.88;;;6.47;;
66593;SDS011;53450;42.584;23.366;2022-08-25T06:40:07;24.52;;;7.00;;
66593;SDS011;53450;42.584;23.366;2022-08-25T06:42:34;31.27;;;6.38;;
66593;SDS011;53450;42.584;23.366;2022-08-25T06:45:00;28.25;;;7.15;;
66593;SDS011;53450;42.584;23.366;2022-08-25T06:47:25;36.17;;;7.00;;
66593;SDS011;53450;42.584;23.366;2022-08-25T06:49:51;16.95;;;5.60;;
66593;SDS011;53450;42.584;23.366;2022-08-25T06:52:17;32.25;;;6.22;;
66593;SDS011;53450;42.584;23.366;2022-08-25T06:54:43;24.77;;;6.78;;
66593;SDS011;53450;42.584;23.366;2022-08-25T06:57:08;22.90;;;6.88;;
66593;SDS011;53450;42.584;23.366;2022-08-25T06:59:34;31.88;;;7.35;;
66593;SDS011;53450;42.584;23.366;2022-08-25T07:02:02;25.42;;;6.32;;
66593;SDS011;53450;42.584;23.366;2022-08-25T07:04:28;21.40;;;6.53;;
66593;SDS011;53450;42.584;23.366;2022-08-25T07:06:54;34.63;;;7.65;;
66593;SDS011;53450;42.584;23.366;2022-08-25T07:09:20;45.03;;;6.85;;
66593;SDS011;53450;42.584;23.366;2022-08-25T07:11:46;32.63;;;7.38;;
66593;SDS011;53450;42.584;23.366;2022-08-25T07:14:12;22.83;;;8.45;;
66593;SDS011;53450;42.584;23.366;2022-08-25T07:16:40;29.63;;;6.25;;
66593;SDS011;53450;42.584;23.366;2022-08-25T07:19:07;21.30;;;6.78;;
66593;SDS011;53450;42.584;23.366;2022-08-25T07:21:34;25.90;;;8.93;;
66593;SDS011;53450;42.584;23.366;2022-08-25T07:24:03;31.70;;;6.70;;
66593;SDS011;53450;42.584;23.366;2022-08-25T07:26:34;34.72;;;8.73;;
66593;SDS011;53450;42.584;23.366;2022-08-25T07:29:01;25.35;;;7.00;;
66593;SDS011;53450;42.584;23.366;2022-08-25T07:31:31;33.13;;;6.32;;
66593;SDS011;53450;42.584;23.366;2022-08-25T07:33:57;30.23;;;6.57;;
66593;SDS011;53450;42.584;23.366;2022-08-25T07:37:06;30.90;;;7.10;;
66593;SDS011;53450;42.584;23.366;2022-08-25T07:39:32;34.13;;;7.13;;
66593;SDS011;53450;42.584;23.366;2022-08-25T07:41:58;25.60;;;7.68;;
66593;SDS011;53450;42.584;23.366;2022-08-25T07:44:25;32.20;;;6.78;;
66593;SDS011;53450;42.584;23.366;2022-08-25T07:46:51;33.83;;;6.60;;
66593;SDS011;53450;42.584;23.366;2022-08-25T07:49:18;33.83;;;7.38;;
66593;SDS011;53450;42.584;23.366;2022-08-25T07:51:45;37.67;;;8.15;;
66593;SDS011;53450;42.584;23.366;2022-08-25T07:54:11;32.63;;;7.80;;
66593;SDS011;53450;42.584;23.366;2022-08-25T07:56:37;39.60;;;7.68;;
66593;SDS011;53450;42.584;23.366;2022-08-25T07:59:03;43.47;;;7.65;;
66593;SDS011;53450;42.584;23.366;2022-08-25T08:01:28;40.20;;;7.20;;
66593;SDS011;53450;42.584;23.366;2022-08-25T08:03:54;74.32;;;7.53;;
66593;SDS011;53450;42.584;23.366;2022-08-25T08:06:22;39.05;;;7.43;;
66593;SDS011;53450;42.584;23.366;2022-08-25T08:08:50;69.25;;;6.85;;
66593;SDS011;53450;42.584;23.366;2022-08-25T08:11:18;58.97;;;7.32;;
66593;SDS011;53450;42.584;23.366;2022-08-25T08:13:49;48.65;;;7.47;;
66593;SDS011;53450;42.584;23.366;2022-08-25T08:16:16;46.00;;;7.20;;
66593;SDS011;53450;42.584;23.366;2022-08-25T08:18:43;54.25;;;7.00;;
66593;SDS011;53450;42.584;23.366;2022-08-25T08:21:13;48.88;;;7.80;;
66593;SDS011;53450;42.584;23.366;2022-08-25T08:23:40;41.85;;;7.05;;
66593;SDS011;53450;42.584;23.366;2022-08-25T08:26:06;40.17;;;6.97;;
66593;SDS011;53450;42.584;23.366;2022-08-25T08:28:32;50.90;;;9.10;;
66593;SDS011;53450;42.584;23.366;2022-08-25T08:30:57;57.53;;;6.53;;
66593;SDS011;53450;42.584;23.366;2022-08-25T08:33:23;48.55;;;7.03;;
66593;SDS011;53450;42.584;23.366;2022-08-25T08:36:22;49.45;;;7.05;;
66593;SDS011;53450;42.584;23.366;2022-08-25T08:38:42;53.67;;;10.32;;
66593;SDS011;53450;42.584;23.366;2022-08-25T08:41:16;57.38;;;7.28;;
66593;SDS011;53450;42.584;23.366;2022-08-25T08:47:06;38.63;;;6.65;;
66593;SDS011;53450;42.584;23.366;2022-08-25T08:52:09;46.22;;;7.60;;
66593;SDS011;53450;42.584;23.366;2022-08-25T08:54:39;49.58;;;7.40;;
66593;SDS011;53450;42.584;23.366;2022-08-25T08:57:13;44.58;;;7.90;;
66593;SDS011;53450;42.584;23.366;2022-08-25T08:59:47;48.28;;;6.78;;
66593;SDS011;53450;42.584;23.366;2022-08-25T09:02:25;49.85;;;6.60;;
66593;SDS011;53450;42.584;23.366;2022-08-25T09:05:00;35.80;;;6.35;;
66593;SDS011;53450;42.584;23.366;2022-08-25T09:07:29;41.90;;;5.70;;
66593;SDS011;53450;42.584;23.366;2022-08-25T09:10:25;48.50;;;6.25;;
66593;SDS011;53450;42.584;23.366;2022-08-25T09:13:08;29.58;;;5.05;;
66593;SDS011;53450;42.584;23.366;2022-08-25T09:18:53;43.28;;;5.63;;
66593;SDS011;53450;42.584;23.366;2022-08-25T09:21:29;33.47;;;5.70;;
66593;SDS011;53450;42.584;23.366;2022-08-25T09:32:38;21.83;;;5.70;;
66593;SDS011;53450;42.584;23.366;2022-08-25T09:35:13;41.65;;;6.30;;
66593;SDS011;53450;42.584;23.366;2022-08-25T09:40:33;42.60;;;6.18;;
66593;SDS011;53450;42.584;23.366;2022-08-25T09:43:01;35.22;;;7.18;;
66593;SDS011;53450;42.584;23.366;2022-08-25T09:45:39;44.50;;;7.00;;
66593;SDS011;53450;42.584;23.366;2022-08-25T09:48:22;28.17;;;6.22;;
66593;SDS011;53450;42.584;23.366;2022-08-25T09:51:01;36.08;;;5.50;;
66593;SDS011;53450;42.584;23.366;2022-08-25T09:53:59;26.55;;;5.45;;
66593;SDS011;53450;42.584;23.366;2022-08-25T09:56:30;53.08;;;6.13;;
66593;SDS011;53450;42.584;23.366;2022-08-25T09:59:17;30.67;;;5.93;;
66593;SDS011;53450;42.584;23.366;2022-08-25T10:02:03;43.45;;;5.78;;
66593;SDS011;53450;42.584;23.366;2022-08-25T10:04:49;42.22;;;5.97;;
66593;SDS011;53450;42.584;23.366;2022-08-25T10:07:20;38.22;;;5.10;;
66593;SDS011;53450;42.584;23.366;2022-08-25T10:10:16;42.15;;;6.10;;
66593;SDS011;53450;42.584;23.366;2022-08-25T10:13:19;43.58;;;5.43;;
66593;SDS011;53450;42.584;23.366;2022-08-25T10:15:47;38.35;;;6.18;;
66593;SDS011;53450;42.584;23.366;2022-08-25T10:18:28;31.90;;;4.53;;
66593;SDS011;53450;42.584;23.366;2022-08-25T10:21:14;43.28;;;5.88;;
66593;SDS011;53450;42.584;23.366;2022-08-25T10:23:45;38.35;;;4.93;;
66593;SDS011;53450;42.584;23.366;2022-08-25T10:29:37;44.17;;;5.90;;
66593;SDS011;53450;42.584;23.366;2022-08-25T10:34:57;52.25;;;6.90;;
66593;SDS011;53450;42.584;23.366;2022-08-25T10:40:27;41.45;;;5.97;;
66593;SDS011;53450;42.584;23.366;2022-08-25T10:43:10;32.90;;;5.45;;
66593;SDS011;53450;42.584;23.366;2022-08-25T10:45:50;35.20;;;5.32;;
66593;SDS011;53450;42.584;23.366;2022-08-25T11:00:07;46.08;;;5.28;;
66593;SDS011;53450;42.584;23.366;2022-08-25T11:06:11;42.70;;;5.28;;
66593;SDS011;53450;42.584;23.366;2022-08-25T11:09:09;38.08;;;6.10;;
66593;SDS011;53450;42.584;23.366;2022-08-25T11:11:39;53.17;;;5.97;;
66593;SDS011;53450;42.584;23.366;2022-08-25T11:14:13;39.60;;;4.72;;
66593;SDS011;53450;42.584;23.366;2022-08-25T11:17:02;49.22;;;5.03;;
66593;SDS011;53450;42.584;23.366;2022-08-25T11:19:37;30.83;;;5.72;;
66593;SDS011;53450;42.584;23.366;2022-08-25T11:22:17;35.00;;;5.45;;
66593;SDS011;53450;42.584;23.366;2022-08-25T11:24:57;30.90;;;4.90;;
66593;SDS011;53450;42.584;23.366;2022-08-25T11:27:59;36.63;;;4.18;;
66593;SDS011;53450;42.584;23.366;2022-08-25T11:30:34;45.70;;;5.03;;
66593;SDS011;53450;42.584;23.366;2022-08-25T11:33:02;40.47;;;5.13;;
66593;SDS011;53450;42.584;23.366;2022-08-25T11:35:30;38.05;;;5.78;;
66593;SDS011;53450;42.584;23.366;2022-08-25T11:46:24;28.35;;;4.72;;
66593;SDS011;53450;42.584;23.366;2022-08-25T11:49:24;36.88;;;5.30;;
66593;SDS011;53450;42.584;23.366;2022-08-25T11:57:36;32.47;;;5.00;;
66593;SDS011;53450;42.584;23.366;2022-08-25T12:00:08;36.25;;;5.03;;
66593;SDS011;53450;42.584;23.366;2022-08-25T12:02:57;31.88;;;4.53;;
66593;SDS011;53450;42.584;23.366;2022-08-25T12:08:02;22.88;;;4.28;;
66593;SDS011;53450;42.584;23.366;2022-08-25T12:10:52;34.13;;;5.20;;
66593;SDS011;53450;42.584;23.366;2022-08-25T12:21:52;35.58;;;5.28;;
66593;SDS011;53450;42.584;23.366;2022-08-25T12:24:21;43.65;;;5.10;;
66593;SDS011;53450;42.584;23.366;2022-08-25T12:26:58;35.47;;;4.25;;
66593;SDS011;53450;42.584;23.366;2022-08-25T12:32:18;21.88;;;4.93;;
66593;SDS011;53450;42.584;23.366;2022-08-25T12:35:25;32.17;;;6.55;;
66593;SDS011;53450;42.584;23.366;2022-08-25T12:38:06;28.85;;;6.88;;
66593;SDS011;53450;42.584;23.366;2022-08-25T12:43:24;35.17;;;6.20;;
66593;SDS011;53450;42.584;23.366;2022-08-25T12:45:53;32.17;;;6.43;;
66593;SDS011;53450;42.584;23.366;2022-08-25T12:48:41;38.25;;;6.82;;
66593;SDS011;53450;42.584;23.366;2022-08-25T12:51:19;25.55;;;4.75;;
66593;SDS011;53450;42.584;23.366;2022-08-25T12:53:52;28.08;;;4.20;;
66593;SDS011;53450;42.584;23.366;2022-08-25T12:56:33;32.65;;;5.63;;
66593;SDS011;53450;42.584;23.366;2022-08-25T13:12:12;30.17;;;5.10;;
66593;SDS011;53450;42.584;23.366;2022-08-25T13:15:02;25.40;;;4.32;;
66593;SDS011;53450;42.584;23.366;2022-08-25T13:17:30;23.17;;;4.95;;
66593;SDS011;53450;42.584;23.366;2022-08-25T13:20:12;28.92;;;4.05;;
66593;SDS011;53450;42.584;23.366;2022-08-25T13:22:39;22.17;;;4.30;;
66593;SDS011;53450;42.584;23.366;2022-08-25T13:25:13;37.85;;;4.95;;
66593;SDS011;53450;42.584;23.366;2022-08-25T13:27:39;26.73;;;4.25;;
66593;SDS011;53450;42.584;23.366;2022-08-25T13:30:05;26.15;;;4.97;;
66593;SDS011;53450;42.584;23.366;2022-08-25T13:32:32;30.80;;;4.78;;
66593;SDS011;53450;42.584;23.366;2022-08-25T13:35:33;33.15;;;4.53;;
66593;SDS011;53450;42.584;23.366;2022-08-25T13:38:10;33.95;;;5.80;;
66593;SDS011;53450;42.584;23.366;2022-08-25T13:40:37;19.63;;;5.22;;
66593;SDS011;53450;42.584;23.366;2022-08-25T13:43:05;22.50;;;4.95;;
66593;SDS011;53450;42.584;23.366;2022-08-25T13:45:40;28.73;;;4.60;;
66593;SDS011;53450;42.584;23.366;2022-08-25T13:48:08;43.97;;;4.53;;
66593;SDS011;53450;42.584;23.366;2022-08-25T13:50:37;27.83;;;4.60;;
66593;SDS011;53450;42.584;23.366;2022-08-25T13:53:21;39.20;;;5.07;;
66593;SDS011;53450;42.584;23.366;2022-08-25T13:56:07;29.50;;;5.05;;
66593;SDS011;53450;42.584;23.366;2022-08-25T13:58:34;38.30;;;7.28;;
66593;SDS011;53450;42.584;23.366;2022-08-25T14:03:44;24.35;;;5.53;;
66593;SDS011;53450;42.584;23.366;2022-08-25T14:08:43;47.42;;;5.72;;
66593;SDS011;53450;42.584;23.366;2022-08-25T14:11:32;37.90;;;5.57;;
66593;SDS011;53450;42.584;23.366;2022-08-25T14:16:52;45.67;;;5.38;;
66593;SDS011;53450;42.584;23.366;2022-08-25T14:19:23;32.10;;;6.68;;
66593;SDS011;53450;42.584;23.366;2022-08-25T14:21:49;36.28;;;4.88;;
66593;SDS011;53450;42.584;23.366;2022-08-25T14:24:17;31.30;;;5.20;;
66593;SDS011;53450;42.584;23.366;2022-08-25T14:26:46;22.92;;;5.75;;
66593;SDS011;53450;42.584;23.366;2022-08-25T14:29:12;27.63;;;4.80;;
66593;SDS011;53450;42.584;23.366;2022-08-25T14:31:40;24.70;;;4.28;;
66593;SDS011;53450;42.584;23.366;2022-08-25T14:34:09;28.80;;;4.82;;
66593;SDS011;53450;42.584;23.366;2022-08-25T14:39:05;41.50;;;4.78;;
66593;SDS011;53450;42.584;23.366;2022-08-25T14:41:31;56.90;;;15.25;;
66593;SDS011;53450;42.584;23.366;2022-08-25T14:43:59;33.45;;;5.68;;
66593;SDS011;53450;42.584;23.366;2022-08-25T14:46:29;35.55;;;4.78;;
66593;SDS011;53450;42.584;23.366;2022-08-25T14:48:58;36.08;;;5.32;;
66593;SDS011;53450;42.584;23.366;2022-08-25T14:51:25;32.97;;;8.45;;
66593;SDS011;53450;42.584;23.366;2022-08-25T14:53:53;46.53;;;7.00;;
66593;SDS011;53450;42.584;23.366;2022-08-25T14:56:21;35.97;;;6.07;;
66593;SDS011;53450;42.584;23.366;2022-08-25T14:58:47;26.80;;;6.05;;
66593;SDS011;53450;42.584;23.366;2022-08-25T15:01:13;40.50;;;6.60;;
66593;SDS011;53450;42.584;23.366;2022-08-25T15:03:42;46.70;;;8.73;;
66593;SDS011;53450;42.584;23.366;2022-08-25T15:06:10;35.38;;;7.75;;
66593;SDS011;53450;42.584;23.366;2022-08-25T15:08:38;29.63;;;6.63;;
66593;SDS011;53450;42.584;23.366;2022-08-25T15:11:22;28.42;;;4.50;;
66593;SDS011;53450;42.584;23.366;2022-08-25T15:13:48;31.63;;;5.13;;
66593;SDS011;53450;42.584;23.366;2022-08-25T15:16:15;35.88;;;5.10;;
66593;SDS011;53450;42.584;23.366;2022-08-25T15:18:46;33.42;;;4.85;;
66593;SDS011;53450;42.584;23.366;2022-08-25T15:21:11;28.13;;;4.68;;
66593;SDS011;53450;42.584;23.366;2022-08-25T15:23:37;28.85;;;4.75;;
66593;SDS011;53450;42.584;23.366;2022-08-25T15:26:02;28.52;;;4.63;;
66593;SDS011;53450;42.584;23.366;2022-08-25T15:28:28;28.15;;;4.72;;
66593;SDS011;53450;42.584;23.366;2022-08-25T15:30:54;36.65;;;4.43;;
66593;SDS011;53450;42.584;23.366;2022-08-25T15:33:20;38.83;;;4.63;;
66593;SDS011;53450;42.584;23.366;2022-08-25T15:35:50;26.70;;;4.25;;
66593;SDS011;53450;42.584;23.366;2022-08-25T15:38:17;41.00;;;5.65;;
66593;SDS011;53450;42.584;23.366;2022-08-25T15:40:43;20.90;;;4.47;;
66593;SDS011;53450;42.584;23.366;2022-08-25T15:43:08;28.23;;;4.80;;
66593;SDS011;53450;42.584;23.366;2022-08-25T15:45:34;32.70;;;4.03;;
66593;SDS011;53450;42.584;23.366;2022-08-25T15:48:00;29.77;;;4.75;;
66593;SDS011;53450;42.584;23.366;2022-08-25T15:50:26;43.00;;;5.30;;
66593;SDS011;53450;42.584;23.366;2022-08-25T15:52:51;22.23;;;4.50;;
66593;SDS011;53450;42.584;23.366;2022-08-25T15:55:17;38.70;;;5.78;;
66593;SDS011;53450;42.584;23.366;2022-08-25T15:57:43;34.22;;;4.68;;
66593;SDS011;53450;42.584;23.366;2022-08-25T16:00:09;37.20;;;5.28;;
66593;SDS011;53450;42.584;23.366;2022-08-25T16:02:36;26.20;;;5.38;;
66593;SDS011;53450;42.584;23.366;2022-08-25T16:05:04;52.92;;;5.47;;
66593;SDS011;53450;42.584;23.366;2022-08-25T16:07:30;33.72;;;6.70;;
66593;SDS011;53450;42.584;23.366;2022-08-25T16:09:56;24.83;;;5.63;;
66593;SDS011;53450;42.584;23.366;2022-08-25T16:12:23;33.85;;;5.70;;
66593;SDS011;53450;42.584;23.366;2022-08-25T16:14:50;41.50;;;6.53;;
66593;SDS011;53450;42.584;23.366;2022-08-25T16:17:19;54.53;;;6.07;;
66593;SDS011;53450;42.584;23.366;2022-08-25T16:19:46;31.67;;;6.93;;
66593;SDS011;53450;42.584;23.366;2022-08-25T16:22:12;29.10;;;6.22;;